sensor_id;sensor_type;location;lat;lon;timestamp;P1;durP1;ratioP1;P2;durP2;ratioP2
35558;SDS011;21661;50.794;-1.066;2023-01-15T00:01:23;6.65;;;1.77;;
35558;SDS011;21661;50.794;-1.066;2023-01-15T00:03:52;10.10;;;1.95;;
35558;SDS011;21661;50.794;-1.066;2023-01-15T00:06:19;10.63;;;1.70;;
35558;SDS011;21661;50.794;-1.066;2023-01-15T00:08:46;6.80;;;1.25;;
35558;SDS011;21661;50.794;-1.066;2023-01-15T00:11:12;11.48;;;1.83;;
35558;SDS011;21661;50.794;-1.066;2023-01-15T00:13:38;7.20;;;0.82;;
35558;SDS011;21661;50.794;-1.066;2023-01-15T00:16:09;7.75;;;1.58;;
35558;SDS011;21661;50.794;-1.066;2023-01-15T00:18:39;9.38;;;1.17;;
35558;SDS011;21661;50.794;-1.066;2023-01-15T00:21:06;6.40;;;1.20;;
35558;SDS011;21661;50.794;-1.066;2023-01-15T00:23:34;10.45;;;1.45;;
35558;SDS011;21661;50.794;-1.066;2023-01-15T00:26:20;4.80;;;0.90;;
35558;SDS011;21661;50.794;-1.066;2023-01-15T00:29:05;7.93;;;1.20;;
35558;SDS011;21661;50.794;-1.066;2023-01-15T00:31:32;9.70;;;1.33;;
35558;SDS011;21661;50.794;-1.066;2023-01-15T00:34:00;7.18;;;1.38;;
35558;SDS011;21661;50.794;-1.066;2023-01-15T00:36:26;5.47;;;1.05;;
35558;SDS011;21661;50.794;-1.066;2023-01-15T00:38:51;5.85;;;1.30;;
35558;SDS011;21661;50.794;-1.066;2023-01-15T00:41:17;6.93;;;1.67;;
35558;SDS011;21661;50.794;-1.066;2023-01-15T00:43:43;8.65;;;1.75;;
35558;SDS011;21661;50.794;-1.066;2023-01-15T00:46:08;8.80;;;1.20;;
35558;SDS011;21661;50.794;-1.066;2023-01-15T00:48:34;5.85;;;0.95;;
35558;SDS011;21661;50.794;-1.066;2023-01-15T00:51:01;8.82;;;1.33;;
35558;SDS011;21661;50.794;-1.066;2023-01-15T00:53:27;7.85;;;0.98;;
35558;SDS011;21661;50.794;-1.066;2023-01-15T00:55:53;8.88;;;1.23;;
35558;SDS011;21661;50.794;-1.066;2023-01-15T00:58:18;10.25;;;1.30;;
35558;SDS011;21661;50.794;-1.066;2023-01-15T01:00:44;3.67;;;0.82;;
35558;SDS011;21661;50.794;-1.066;2023-01-15T01:03:09;7.60;;;1.63;;
35558;SDS011;21661;50.794;-1.066;2023-01-15T01:05:35;7.50;;;0.80;;
35558;SDS011;21661;50.794;-1.066;2023-01-15T01:08:02;3.35;;;0.98;;
35558;SDS011;21661;50.794;-1.066;2023-01-15T01:10:27;4.32;;;0.60;;
35558;SDS011;21661;50.794;-1.066;2023-01-15T01:12:53;5.68;;;0.70;;
35558;SDS011;21661;50.794;-1.066;2023-01-15T01:15:20;3.75;;;1.00;;
35558;SDS011;21661;50.794;-1.066;2023-01-15T01:17:46;3.92;;;0.70;;
35558;SDS011;21661;50.794;-1.066;2023-01-15T01:20:13;4.82;;;0.85;;
35558;SDS011;21661;50.794;-1.066;2023-01-15T01:22:40;3.00;;;0.60;;
35558;SDS011;21661;50.794;-1.066;2023-01-15T01:25:05;9.10;;;0.65;;
35558;SDS011;21661;50.794;-1.066;2023-01-15T01:27:32;4.38;;;0.70;;
35558;SDS011;21661;50.794;-1.066;2023-01-15T01:29:58;4.88;;;0.80;;
35558;SDS011;21661;50.794;-1.066;2023-01-15T01:32:23;4.68;;;0.90;;
35558;SDS011;21661;50.794;-1.066;2023-01-15T01:34:49;7.85;;;0.70;;
35558;SDS011;21661;50.794;-1.066;2023-01-15T01:37:14;5.40;;;0.90;;
35558;SDS011;21661;50.794;-1.066;2023-01-15T01:39:40;11.25;;;0.80;;
35558;SDS011;21661;50.794;-1.066;2023-01-15T01:42:13;7.65;;;1.05;;
35558;SDS011;21661;50.794;-1.066;2023-01-15T01:47:10;8.77;;;1.05;;
35558;SDS011;21661;50.794;-1.066;2023-01-15T01:49:47;7.30;;;0.90;;
35558;SDS011;21661;50.794;-1.066;2023-01-15T01:52:35;9.73;;;0.90;;
35558;SDS011;21661;50.794;-1.066;2023-01-15T01:55:07;6.75;;;0.90;;
35558;SDS011;21661;50.794;-1.066;2023-01-15T01:57:34;5.95;;;1.02;;
35558;SDS011;21661;50.794;-1.066;2023-01-15T02:00:00;10.02;;;1.42;;
35558;SDS011;21661;50.794;-1.066;2023-01-15T02:02:30;5.50;;;0.82;;
35558;SDS011;21661;50.794;-1.066;2023-01-15T02:04:56;4.60;;;0.75;;
35558;SDS011;21661;50.794;-1.066;2023-01-15T02:07:21;5.60;;;0.82;;
35558;SDS011;21661;50.794;-1.066;2023-01-15T02:09:47;5.72;;;0.80;;
35558;SDS011;21661;50.794;-1.066;2023-01-15T02:12:18;9.05;;;1.10;;
35558;SDS011;21661;50.794;-1.066;2023-01-15T02:14:53;5.70;;;0.82;;
35558;SDS011;21661;50.794;-1.066;2023-01-15T02:22:43;10.55;;;1.10;;
35558;SDS011;21661;50.794;-1.066;2023-01-15T02:25:22;10.85;;;1.30;;
35558;SDS011;21661;50.794;-1.066;2023-01-15T02:28:19;6.90;;;1.15;;
35558;SDS011;21661;50.794;-1.066;2023-01-15T02:30:52;10.30;;;1.02;;
35558;SDS011;21661;50.794;-1.066;2023-01-15T02:33:54;8.98;;;1.67;;
35558;SDS011;21661;50.794;-1.066;2023-01-15T02:36:43;9.63;;;1.08;;
35558;SDS011;21661;50.794;-1.066;2023-01-15T02:39:13;9.53;;;1.03;;
35558;SDS011;21661;50.794;-1.066;2023-01-15T02:41:43;10.98;;;1.42;;
35558;SDS011;21661;50.794;-1.066;2023-01-15T02:44:12;11.38;;;1.92;;
35558;SDS011;21661;50.794;-1.066;2023-01-15T02:46:40;8.07;;;1.13;;
35558;SDS011;21661;50.794;-1.066;2023-01-15T02:49:08;11.38;;;1.20;;
35558;SDS011;21661;50.794;-1.066;2023-01-15T02:51:57;6.28;;;1.02;;
35558;SDS011;21661;50.794;-1.066;2023-01-15T02:54:27;10.77;;;1.60;;
35558;SDS011;21661;50.794;-1.066;2023-01-15T02:56:58;8.32;;;1.67;;
35558;SDS011;21661;50.794;-1.066;2023-01-15T02:59:27;8.50;;;1.40;;
35558;SDS011;21661;50.794;-1.066;2023-01-15T03:01:59;13.30;;;1.30;;
35558;SDS011;21661;50.794;-1.066;2023-01-15T03:04:29;7.82;;;1.17;;
35558;SDS011;21661;50.794;-1.066;2023-01-15T03:07:06;8.77;;;2.00;;
35558;SDS011;21661;50.794;-1.066;2023-01-15T03:09:44;8.85;;;0.82;;
35558;SDS011;21661;50.794;-1.066;2023-01-15T03:17:39;8.75;;;1.10;;
35558;SDS011;21661;50.794;-1.066;2023-01-15T03:20:19;10.93;;;1.10;;
35558;SDS011;21661;50.794;-1.066;2023-01-15T03:25:19;6.60;;;0.75;;
35558;SDS011;21661;50.794;-1.066;2023-01-15T03:27:47;8.20;;;1.15;;
35558;SDS011;21661;50.794;-1.066;2023-01-15T03:30:17;10.00;;;1.00;;
35558;SDS011;21661;50.794;-1.066;2023-01-15T03:32:44;9.32;;;0.98;;
35558;SDS011;21661;50.794;-1.066;2023-01-15T03:38:18;6.63;;;0.90;;
35558;SDS011;21661;50.794;-1.066;2023-01-15T03:43:18;9.00;;;1.30;;
35558;SDS011;21661;50.794;-1.066;2023-01-15T03:46:08;2.67;;;0.80;;
35558;SDS011;21661;50.794;-1.066;2023-01-15T03:48:47;9.50;;;1.20;;
35558;SDS011;21661;50.794;-1.066;2023-01-15T03:51:24;11.05;;;2.10;;
35558;SDS011;21661;50.794;-1.066;2023-01-15T03:53:57;9.65;;;1.00;;
35558;SDS011;21661;50.794;-1.066;2023-01-15T03:56:32;5.68;;;0.82;;
35558;SDS011;21661;50.794;-1.066;2023-01-15T03:59:10;12.95;;;1.30;;
35558;SDS011;21661;50.794;-1.066;2023-01-15T04:01:43;6.53;;;1.00;;
35558;SDS011;21661;50.794;-1.066;2023-01-15T04:04:11;5.47;;;0.93;;
35558;SDS011;21661;50.794;-1.066;2023-01-15T04:06:39;12.27;;;1.60;;
35558;SDS011;21661;50.794;-1.066;2023-01-15T04:09:07;10.25;;;1.23;;
35558;SDS011;21661;50.794;-1.066;2023-01-15T04:11:36;9.07;;;1.50;;
35558;SDS011;21661;50.794;-1.066;2023-01-15T04:14:01;16.48;;;1.77;;
35558;SDS011;21661;50.794;-1.066;2023-01-15T04:16:28;11.90;;;1.65;;
35558;SDS011;21661;50.794;-1.066;2023-01-15T04:18:55;17.70;;;1.73;;
35558;SDS011;21661;50.794;-1.066;2023-01-15T04:21:21;18.25;;;2.45;;
35558;SDS011;21661;50.794;-1.066;2023-01-15T04:23:48;7.72;;;1.13;;
35558;SDS011;21661;50.794;-1.066;2023-01-15T04:26:13;9.60;;;0.93;;
35558;SDS011;21661;50.794;-1.066;2023-01-15T04:28:39;9.45;;;1.15;;
35558;SDS011;21661;50.794;-1.066;2023-01-15T04:31:05;11.10;;;1.73;;
35558;SDS011;21661;50.794;-1.066;2023-01-15T04:33:31;7.78;;;1.50;;
35558;SDS011;21661;50.794;-1.066;2023-01-15T04:36:01;8.02;;;1.17;;
35558;SDS011;21661;50.794;-1.066;2023-01-15T04:38:27;6.43;;;0.90;;
35558;SDS011;21661;50.794;-1.066;2023-01-15T04:40:53;10.43;;;0.90;;
35558;SDS011;21661;50.794;-1.066;2023-01-15T04:43:37;9.15;;;0.52;;
35558;SDS011;21661;50.794;-1.066;2023-01-15T04:46:22;3.38;;;0.55;;
35558;SDS011;21661;50.794;-1.066;2023-01-15T04:48:48;4.00;;;0.60;;
35558;SDS011;21661;50.794;-1.066;2023-01-15T04:51:14;3.65;;;0.50;;
35558;SDS011;21661;50.794;-1.066;2023-01-15T04:53:40;3.47;;;0.60;;
35558;SDS011;21661;50.794;-1.066;2023-01-15T04:56:06;3.15;;;0.55;;
35558;SDS011;21661;50.794;-1.066;2023-01-15T04:58:32;2.60;;;0.40;;
35558;SDS011;21661;50.794;-1.066;2023-01-15T05:00:59;6.40;;;0.40;;
35558;SDS011;21661;50.794;-1.066;2023-01-15T05:03:25;1.30;;;0.40;;
35558;SDS011;21661;50.794;-1.066;2023-01-15T05:05:51;2.70;;;0.50;;
35558;SDS011;21661;50.794;-1.066;2023-01-15T05:08:17;2.75;;;0.47;;
35558;SDS011;21661;50.794;-1.066;2023-01-15T05:10:43;2.95;;;0.60;;
35558;SDS011;21661;50.794;-1.066;2023-01-15T05:13:08;5.82;;;0.68;;
35558;SDS011;21661;50.794;-1.066;2023-01-15T05:15:34;6.25;;;0.63;;
35558;SDS011;21661;50.794;-1.066;2023-01-15T05:18:02;3.90;;;0.90;;
35558;SDS011;21661;50.794;-1.066;2023-01-15T05:20:28;6.65;;;0.95;;
35558;SDS011;21661;50.794;-1.066;2023-01-15T05:22:53;7.95;;;0.93;;
35558;SDS011;21661;50.794;-1.066;2023-01-15T05:25:19;7.07;;;0.73;;
35558;SDS011;21661;50.794;-1.066;2023-01-15T05:27:45;9.90;;;1.08;;
35558;SDS011;21661;50.794;-1.066;2023-01-15T05:30:10;8.68;;;1.23;;
35558;SDS011;21661;50.794;-1.066;2023-01-15T05:32:36;9.68;;;1.05;;
35558;SDS011;21661;50.794;-1.066;2023-01-15T05:35:02;11.50;;;1.02;;
35558;SDS011;21661;50.794;-1.066;2023-01-15T05:37:28;6.55;;;0.90;;
35558;SDS011;21661;50.794;-1.066;2023-01-15T05:39:54;7.82;;;1.25;;
35558;SDS011;21661;50.794;-1.066;2023-01-15T05:42:20;10.98;;;1.30;;
35558;SDS011;21661;50.794;-1.066;2023-01-15T05:44:45;7.10;;;1.40;;
35558;SDS011;21661;50.794;-1.066;2023-01-15T05:47:11;9.60;;;2.00;;
35558;SDS011;21661;50.794;-1.066;2023-01-15T05:49:38;8.68;;;1.13;;
35558;SDS011;21661;50.794;-1.066;2023-01-15T05:52:03;5.88;;;1.45;;
35558;SDS011;21661;50.794;-1.066;2023-01-15T05:54:30;5.20;;;1.08;;
35558;SDS011;21661;50.794;-1.066;2023-01-15T05:56:57;10.45;;;0.98;;
35558;SDS011;21661;50.794;-1.066;2023-01-15T05:59:24;12.32;;;1.13;;
35558;SDS011;21661;50.794;-1.066;2023-01-15T06:01:51;9.05;;;1.52;;
35558;SDS011;21661;50.794;-1.066;2023-01-15T06:04:17;11.65;;;1.40;;
35558;SDS011;21661;50.794;-1.066;2023-01-15T06:06:45;9.15;;;1.10;;
35558;SDS011;21661;50.794;-1.066;2023-01-15T06:09:12;9.32;;;1.60;;
35558;SDS011;21661;50.794;-1.066;2023-01-15T06:11:38;9.27;;;1.35;;
35558;SDS011;21661;50.794;-1.066;2023-01-15T06:14:04;9.20;;;1.60;;
35558;SDS011;21661;50.794;-1.066;2023-01-15T06:16:30;8.02;;;1.00;;
35558;SDS011;21661;50.794;-1.066;2023-01-15T06:18:59;7.57;;;1.05;;
35558;SDS011;21661;50.794;-1.066;2023-01-15T06:21:28;10.23;;;1.33;;
35558;SDS011;21661;50.794;-1.066;2023-01-15T06:23:53;16.08;;;1.50;;
35558;SDS011;21661;50.794;-1.066;2023-01-15T06:26:19;6.20;;;1.08;;
35558;SDS011;21661;50.794;-1.066;2023-01-15T06:28:45;13.13;;;2.55;;
35558;SDS011;21661;50.794;-1.066;2023-01-15T06:31:15;11.43;;;1.80;;
35558;SDS011;21661;50.794;-1.066;2023-01-15T06:33:43;7.95;;;1.00;;
35558;SDS011;21661;50.794;-1.066;2023-01-15T06:36:10;10.20;;;1.25;;
35558;SDS011;21661;50.794;-1.066;2023-01-15T06:38:40;5.93;;;0.93;;
35558;SDS011;21661;50.794;-1.066;2023-01-15T06:41:07;14.65;;;2.15;;
35558;SDS011;21661;50.794;-1.066;2023-01-15T06:43:55;8.70;;;1.48;;
35558;SDS011;21661;50.794;-1.066;2023-01-15T06:46:41;8.95;;;1.30;;
35558;SDS011;21661;50.794;-1.066;2023-01-15T06:49:28;9.63;;;1.20;;
35558;SDS011;21661;50.794;-1.066;2023-01-15T06:51:54;11.68;;;1.20;;
35558;SDS011;21661;50.794;-1.066;2023-01-15T06:54:20;10.48;;;1.20;;
35558;SDS011;21661;50.794;-1.066;2023-01-15T06:56:45;9.27;;;1.20;;
35558;SDS011;21661;50.794;-1.066;2023-01-15T06:59:11;7.40;;;1.08;;
35558;SDS011;21661;50.794;-1.066;2023-01-15T07:01:36;12.45;;;1.52;;
35558;SDS011;21661;50.794;-1.066;2023-01-15T07:04:02;9.45;;;1.33;;
35558;SDS011;21661;50.794;-1.066;2023-01-15T07:06:28;8.05;;;1.05;;
35558;SDS011;21661;50.794;-1.066;2023-01-15T07:08:53;8.00;;;1.42;;
35558;SDS011;21661;50.794;-1.066;2023-01-15T07:11:19;10.65;;;2.50;;
35558;SDS011;21661;50.794;-1.066;2023-01-15T07:13:44;6.05;;;1.23;;
35558;SDS011;21661;50.794;-1.066;2023-01-15T07:16:10;11.15;;;1.38;;
35558;SDS011;21661;50.794;-1.066;2023-01-15T07:18:51;8.57;;;1.80;;
35558;SDS011;21661;50.794;-1.066;2023-01-15T07:21:17;8.75;;;2.28;;
35558;SDS011;21661;50.794;-1.066;2023-01-15T07:23:43;8.70;;;1.65;;
35558;SDS011;21661;50.794;-1.066;2023-01-15T07:26:09;12.23;;;1.75;;
35558;SDS011;21661;50.794;-1.066;2023-01-15T07:28:34;10.93;;;1.60;;
35558;SDS011;21661;50.794;-1.066;2023-01-15T07:31:00;9.82;;;1.38;;
35558;SDS011;21661;50.794;-1.066;2023-01-15T07:33:26;6.57;;;1.20;;
35558;SDS011;21661;50.794;-1.066;2023-01-15T07:35:51;9.75;;;1.27;;
35558;SDS011;21661;50.794;-1.066;2023-01-15T07:38:17;11.02;;;1.98;;
35558;SDS011;21661;50.794;-1.066;2023-01-15T07:40:42;10.35;;;1.77;;
35558;SDS011;21661;50.794;-1.066;2023-01-15T07:43:09;9.00;;;1.75;;
35558;SDS011;21661;50.794;-1.066;2023-01-15T07:45:53;13.05;;;2.33;;
35558;SDS011;21661;50.794;-1.066;2023-01-15T07:48:38;12.23;;;1.40;;
35558;SDS011;21661;50.794;-1.066;2023-01-15T07:51:22;11.90;;;1.40;;
35558;SDS011;21661;50.794;-1.066;2023-01-15T07:53:47;11.35;;;1.48;;
35558;SDS011;21661;50.794;-1.066;2023-01-15T07:56:13;9.02;;;1.42;;
35558;SDS011;21661;50.794;-1.066;2023-01-15T07:58:39;12.88;;;3.10;;
35558;SDS011;21661;50.794;-1.066;2023-01-15T08:01:05;8.88;;;1.42;;
35558;SDS011;21661;50.794;-1.066;2023-01-15T08:03:30;8.88;;;1.38;;
35558;SDS011;21661;50.794;-1.066;2023-01-15T08:05:56;10.25;;;2.00;;
35558;SDS011;21661;50.794;-1.066;2023-01-15T08:08:21;12.90;;;1.80;;
35558;SDS011;21661;50.794;-1.066;2023-01-15T08:10:47;11.25;;;1.10;;
35558;SDS011;21661;50.794;-1.066;2023-01-15T08:13:31;10.82;;;1.40;;
35558;SDS011;21661;50.794;-1.066;2023-01-15T08:16:15;7.93;;;1.33;;
35558;SDS011;21661;50.794;-1.066;2023-01-15T08:18:41;9.48;;;1.48;;
35558;SDS011;21661;50.794;-1.066;2023-01-15T08:21:13;11.55;;;2.13;;
35558;SDS011;21661;50.794;-1.066;2023-01-15T08:23:39;8.47;;;1.33;;
35558;SDS011;21661;50.794;-1.066;2023-01-15T08:26:07;12.05;;;1.67;;
35558;SDS011;21661;50.794;-1.066;2023-01-15T08:28:33;10.18;;;1.40;;
35558;SDS011;21661;50.794;-1.066;2023-01-15T08:30:58;8.32;;;1.15;;
35558;SDS011;21661;50.794;-1.066;2023-01-15T08:33:24;12.45;;;1.58;;
35558;SDS011;21661;50.794;-1.066;2023-01-15T08:35:49;9.88;;;1.30;;
35558;SDS011;21661;50.794;-1.066;2023-01-15T08:38:15;14.00;;;1.70;;
35558;SDS011;21661;50.794;-1.066;2023-01-15T08:40:40;8.20;;;1.65;;
35558;SDS011;21661;50.794;-1.066;2023-01-15T08:43:26;11.30;;;1.95;;
35558;SDS011;21661;50.794;-1.066;2023-01-15T08:45:57;14.02;;;2.58;;
35558;SDS011;21661;50.794;-1.066;2023-01-15T08:48:24;9.20;;;1.88;;
35558;SDS011;21661;50.794;-1.066;2023-01-15T08:50:50;12.65;;;2.08;;
35558;SDS011;21661;50.794;-1.066;2023-01-15T08:53:16;13.10;;;1.60;;
35558;SDS011;21661;50.794;-1.066;2023-01-15T08:55:43;7.57;;;1.42;;
35558;SDS011;21661;50.794;-1.066;2023-01-15T08:58:09;7.15;;;1.40;;
35558;SDS011;21661;50.794;-1.066;2023-01-15T09:00:35;17.13;;;2.17;;
35558;SDS011;21661;50.794;-1.066;2023-01-15T09:03:01;9.82;;;1.40;;
35558;SDS011;21661;50.794;-1.066;2023-01-15T09:05:27;12.30;;;1.52;;
35558;SDS011;21661;50.794;-1.066;2023-01-15T09:07:53;8.73;;;2.08;;
35558;SDS011;21661;50.794;-1.066;2023-01-15T09:10:19;11.10;;;2.25;;
35558;SDS011;21661;50.794;-1.066;2023-01-15T09:12:45;12.48;;;1.83;;
35558;SDS011;21661;50.794;-1.066;2023-01-15T09:15:11;12.23;;;2.50;;
35558;SDS011;21661;50.794;-1.066;2023-01-15T09:17:37;9.05;;;2.05;;
35558;SDS011;21661;50.794;-1.066;2023-01-15T09:20:06;9.48;;;1.35;;
35558;SDS011;21661;50.794;-1.066;2023-01-15T09:22:34;12.15;;;2.00;;
35558;SDS011;21661;50.794;-1.066;2023-01-15T09:24:59;11.77;;;1.73;;
35558;SDS011;21661;50.794;-1.066;2023-01-15T09:27:26;9.75;;;1.50;;
35558;SDS011;21661;50.794;-1.066;2023-01-15T09:29:52;11.02;;;1.40;;
35558;SDS011;21661;50.794;-1.066;2023-01-15T09:32:18;9.73;;;1.55;;
35558;SDS011;21661;50.794;-1.066;2023-01-15T09:34:44;11.40;;;1.30;;
35558;SDS011;21661;50.794;-1.066;2023-01-15T09:37:09;18.27;;;1.95;;
35558;SDS011;21661;50.794;-1.066;2023-01-15T09:39:38;20.88;;;8.30;;
35558;SDS011;21661;50.794;-1.066;2023-01-15T09:51:03;12.02;;;3.60;;
35558;SDS011;21661;50.794;-1.066;2023-01-15T09:56:35;15.52;;;4.55;;
35558;SDS011;21661;50.794;-1.066;2023-01-15T09:59:11;14.52;;;4.70;;
35558;SDS011;21661;50.794;-1.066;2023-01-15T10:01:44;18.02;;;8.00;;
35558;SDS011;21661;50.794;-1.066;2023-01-15T10:07:04;16.02;;;6.32;;
35558;SDS011;21661;50.794;-1.066;2023-01-15T10:09:45;24.77;;;10.63;;
35558;SDS011;21661;50.794;-1.066;2023-01-15T10:12:16;20.48;;;8.77;;
35558;SDS011;21661;50.794;-1.066;2023-01-15T10:17:40;13.25;;;5.47;;
35558;SDS011;21661;50.794;-1.066;2023-01-15T10:20:11;17.08;;;11.07;;
35558;SDS011;21661;50.794;-1.066;2023-01-15T10:25:13;9.20;;;2.03;;
35558;SDS011;21661;50.794;-1.066;2023-01-15T10:27:43;13.07;;;1.88;;
35558;SDS011;21661;50.794;-1.066;2023-01-15T10:32:51;6.13;;;1.27;;
35558;SDS011;21661;50.794;-1.066;2023-01-15T10:35:22;5.47;;;1.30;;
35558;SDS011;21661;50.794;-1.066;2023-01-15T10:43:30;45.67;;;21.88;;
35558;SDS011;21661;50.794;-1.066;2023-01-15T10:46:02;98.28;;;46.25;;
35558;SDS011;21661;50.794;-1.066;2023-01-15T10:48:55;210.35;;;105.22;;
35558;SDS011;21661;50.794;-1.066;2023-01-15T10:51:27;62.53;;;29.77;;
35558;SDS011;21661;50.794;-1.066;2023-01-15T10:54:00;66.40;;;34.65;;
35558;SDS011;21661;50.794;-1.066;2023-01-15T10:56:52;102.22;;;48.15;;
35558;SDS011;21661;50.794;-1.066;2023-01-15T10:59:24;117.43;;;60.60;;
35558;SDS011;21661;50.794;-1.066;2023-01-15T11:01:54;78.75;;;47.42;;
35558;SDS011;21661;50.794;-1.066;2023-01-15T11:04:24;64.10;;;37.08;;
35558;SDS011;21661;50.794;-1.066;2023-01-15T11:06:55;26.45;;;16.92;;
35558;SDS011;21661;50.794;-1.066;2023-01-15T11:09:22;18.35;;;9.00;;
35558;SDS011;21661;50.794;-1.066;2023-01-15T11:14:47;10.15;;;1.52;;
35558;SDS011;21661;50.794;-1.066;2023-01-15T11:17:32;9.18;;;1.50;;
35558;SDS011;21661;50.794;-1.066;2023-01-15T11:20:32;11.45;;;1.65;;
35558;SDS011;21661;50.794;-1.066;2023-01-15T11:23:10;7.72;;;1.50;;
35558;SDS011;21661;50.794;-1.066;2023-01-15T11:25:39;7.90;;;1.50;;
35558;SDS011;21661;50.794;-1.066;2023-01-15T11:28:17;9.05;;;1.20;;
35558;SDS011;21661;50.794;-1.066;2023-01-15T11:30:54;7.43;;;1.20;;
35558;SDS011;21661;50.794;-1.066;2023-01-15T11:33:21;7.38;;;1.52;;
35558;SDS011;21661;50.794;-1.066;2023-01-15T11:35:49;5.90;;;1.02;;
35558;SDS011;21661;50.794;-1.066;2023-01-15T11:38:16;7.85;;;1.30;;
35558;SDS011;21661;50.794;-1.066;2023-01-15T11:40:55;5.40;;;1.02;;
35558;SDS011;21661;50.794;-1.066;2023-01-15T11:43:24;7.53;;;1.40;;
35558;SDS011;21661;50.794;-1.066;2023-01-15T11:49:09;11.52;;;1.48;;
35558;SDS011;21661;50.794;-1.066;2023-01-15T11:51:53;8.88;;;1.40;;
35558;SDS011;21661;50.794;-1.066;2023-01-15T11:54:22;9.63;;;1.30;;
35558;SDS011;21661;50.794;-1.066;2023-01-15T11:56:49;5.70;;;1.20;;
35558;SDS011;21661;50.794;-1.066;2023-01-15T11:59:16;8.75;;;1.42;;
35558;SDS011;21661;50.794;-1.066;2023-01-15T12:01:48;9.70;;;2.55;;
35558;SDS011;21661;50.794;-1.066;2023-01-15T12:07:01;10.55;;;1.60;;
35558;SDS011;21661;50.794;-1.066;2023-01-15T12:12:24;11.95;;;1.40;;
35558;SDS011;21661;50.794;-1.066;2023-01-15T12:26:32;11.18;;;1.48;;
35558;SDS011;21661;50.794;-1.066;2023-01-15T12:31:33;6.22;;;1.60;;
35558;SDS011;21661;50.794;-1.066;2023-01-15T12:34:05;10.13;;;2.03;;
35558;SDS011;21661;50.794;-1.066;2023-01-15T12:36:49;11.60;;;1.88;;
35558;SDS011;21661;50.794;-1.066;2023-01-15T12:39:20;14.88;;;2.33;;
35558;SDS011;21661;50.794;-1.066;2023-01-15T12:41:51;15.95;;;2.15;;
35558;SDS011;21661;50.794;-1.066;2023-01-15T12:47:44;11.73;;;2.28;;
35558;SDS011;21661;50.794;-1.066;2023-01-15T12:52:44;8.60;;;1.60;;
35558;SDS011;21661;50.794;-1.066;2023-01-15T12:55:19;10.65;;;1.90;;
35558;SDS011;21661;50.794;-1.066;2023-01-15T12:57:50;7.28;;;1.50;;
35558;SDS011;21661;50.794;-1.066;2023-01-15T13:00:19;8.82;;;1.25;;
35558;SDS011;21661;50.794;-1.066;2023-01-15T13:05:51;9.85;;;1.80;;
35558;SDS011;21661;50.794;-1.066;2023-01-15T13:08:29;11.32;;;1.83;;
35558;SDS011;21661;50.794;-1.066;2023-01-15T13:11:01;14.52;;;1.63;;
35558;SDS011;21661;50.794;-1.066;2023-01-15T13:13:28;7.63;;;1.70;;
35558;SDS011;21661;50.794;-1.066;2023-01-15T13:18:29;12.50;;;1.92;;
35558;SDS011;21661;50.794;-1.066;2023-01-15T13:21:12;9.45;;;1.70;;
35558;SDS011;21661;50.794;-1.066;2023-01-15T13:36:50;10.73;;;2.45;;
35558;SDS011;21661;50.794;-1.066;2023-01-15T13:39:20;8.68;;;1.65;;
35558;SDS011;21661;50.794;-1.066;2023-01-15T13:41:49;9.70;;;1.98;;
35558;SDS011;21661;50.794;-1.066;2023-01-15T13:44:37;8.25;;;1.50;;
35558;SDS011;21661;50.794;-1.066;2023-01-15T13:47:11;8.43;;;2.58;;
35558;SDS011;21661;50.794;-1.066;2023-01-15T13:49:47;16.90;;;5.22;;
35558;SDS011;21661;50.794;-1.066;2023-01-15T13:52:26;19.00;;;3.60;;
35558;SDS011;21661;50.794;-1.066;2023-01-15T13:55:00;10.00;;;1.75;;
35558;SDS011;21661;50.794;-1.066;2023-01-15T13:57:50;21.02;;;9.25;;
35558;SDS011;21661;50.794;-1.066;2023-01-15T14:00:35;10.27;;;2.80;;
35558;SDS011;21661;50.794;-1.066;2023-01-15T14:03:22;24.05;;;11.10;;
35558;SDS011;21661;50.794;-1.066;2023-01-15T14:05:54;10.48;;;2.03;;
35558;SDS011;21661;50.794;-1.066;2023-01-15T14:08:24;10.13;;;1.67;;
35558;SDS011;21661;50.794;-1.066;2023-01-15T14:10:52;14.82;;;1.17;;
35558;SDS011;21661;50.794;-1.066;2023-01-15T14:27:16;4.85;;;0.88;;
35558;SDS011;21661;50.794;-1.066;2023-01-15T14:30:09;3.72;;;0.70;;
35558;SDS011;21661;50.794;-1.066;2023-01-15T14:35:24;2.28;;;0.60;;
35558;SDS011;21661;50.794;-1.066;2023-01-15T14:37:52;2.00;;;0.70;;
35558;SDS011;21661;50.794;-1.066;2023-01-15T14:40:21;4.53;;;1.13;;
35558;SDS011;21661;50.794;-1.066;2023-01-15T14:42:50;2.28;;;0.98;;
35558;SDS011;21661;50.794;-1.066;2023-01-15T14:45:34;7.32;;;1.20;;
35558;SDS011;21661;50.794;-1.066;2023-01-15T14:50:52;6.47;;;0.90;;
35558;SDS011;21661;50.794;-1.066;2023-01-15T14:53:29;3.85;;;0.50;;
35558;SDS011;21661;50.794;-1.066;2023-01-15T15:01:36;5.13;;;1.85;;
35558;SDS011;21661;50.794;-1.066;2023-01-15T15:06:58;9.30;;;4.22;;
35558;SDS011;21661;50.794;-1.066;2023-01-15T15:09:39;8.10;;;3.33;;
35558;SDS011;21661;50.794;-1.066;2023-01-15T15:12:21;11.27;;;6.20;;
35558;SDS011;21661;50.794;-1.066;2023-01-15T15:17:41;6.90;;;2.65;;
35558;SDS011;21661;50.794;-1.066;2023-01-15T15:23:27;4.97;;;1.23;;
35558;SDS011;21661;50.794;-1.066;2023-01-15T15:26:16;6.55;;;1.35;;
35558;SDS011;21661;50.794;-1.066;2023-01-15T15:28:59;5.28;;;1.58;;
35558;SDS011;21661;50.794;-1.066;2023-01-15T15:31:36;4.88;;;2.35;;
35558;SDS011;21661;50.794;-1.066;2023-01-15T15:34:19;4.97;;;1.75;;
35558;SDS011;21661;50.794;-1.066;2023-01-15T15:36:47;7.03;;;1.65;;
35558;SDS011;21661;50.794;-1.066;2023-01-15T15:39:15;8.27;;;2.63;;
35558;SDS011;21661;50.794;-1.066;2023-01-15T15:41:44;10.30;;;3.40;;
35558;SDS011;21661;50.794;-1.066;2023-01-15T15:44:35;8.90;;;2.35;;
35558;SDS011;21661;50.794;-1.066;2023-01-15T15:47:26;4.95;;;1.20;;
35558;SDS011;21661;50.794;-1.066;2023-01-15T15:50:20;5.40;;;1.70;;
35558;SDS011;21661;50.794;-1.066;2023-01-15T15:52:50;6.57;;;1.40;;
35558;SDS011;21661;50.794;-1.066;2023-01-15T15:55:19;5.78;;;1.17;;
35558;SDS011;21661;50.794;-1.066;2023-01-15T15:57:47;11.30;;;2.00;;
35558;SDS011;21661;50.794;-1.066;2023-01-15T16:00:18;8.85;;;2.30;;
35558;SDS011;21661;50.794;-1.066;2023-01-15T16:02:49;7.30;;;2.10;;
35558;SDS011;21661;50.794;-1.066;2023-01-15T16:07:44;10.38;;;4.10;;
35558;SDS011;21661;50.794;-1.066;2023-01-15T16:12:42;6.80;;;2.10;;
35558;SDS011;21661;50.794;-1.066;2023-01-15T16:15:14;8.20;;;2.55;;
35558;SDS011;21661;50.794;-1.066;2023-01-15T16:17:53;8.70;;;2.55;;
35558;SDS011;21661;50.794;-1.066;2023-01-15T16:20:20;8.23;;;2.53;;
35558;SDS011;21661;50.794;-1.066;2023-01-15T16:23:00;11.68;;;3.70;;
35558;SDS011;21661;50.794;-1.066;2023-01-15T16:25:28;12.38;;;7.53;;
35558;SDS011;21661;50.794;-1.066;2023-01-15T16:27:55;12.18;;;7.78;;
35558;SDS011;21661;50.794;-1.066;2023-01-15T16:30:21;16.02;;;8.88;;
35558;SDS011;21661;50.794;-1.066;2023-01-15T16:32:47;14.15;;;9.23;;
35558;SDS011;21661;50.794;-1.066;2023-01-15T16:37:45;9.57;;;5.03;;
35558;SDS011;21661;50.794;-1.066;2023-01-15T16:40:31;13.38;;;7.03;;
35558;SDS011;21661;50.794;-1.066;2023-01-15T16:45:39;17.67;;;8.45;;
35558;SDS011;21661;50.794;-1.066;2023-01-15T16:53:47;8.93;;;3.90;;
35558;SDS011;21661;50.794;-1.066;2023-01-15T17:01:53;11.43;;;4.28;;
35558;SDS011;21661;50.794;-1.066;2023-01-15T17:06:59;9.35;;;4.45;;
35558;SDS011;21661;50.794;-1.066;2023-01-15T17:09:39;11.02;;;3.55;;
35558;SDS011;21661;50.794;-1.066;2023-01-15T17:12:26;11.15;;;2.75;;
35558;SDS011;21661;50.794;-1.066;2023-01-15T17:14:53;9.27;;;2.88;;
35558;SDS011;21661;50.794;-1.066;2023-01-15T17:19:49;8.15;;;2.38;;
35558;SDS011;21661;50.794;-1.066;2023-01-15T17:22:24;11.02;;;4.85;;
35558;SDS011;21661;50.794;-1.066;2023-01-15T17:24:52;17.02;;;5.78;;
35558;SDS011;21661;50.794;-1.066;2023-01-15T17:27:25;13.02;;;3.80;;
35558;SDS011;21661;50.794;-1.066;2023-01-15T17:29:53;7.43;;;2.40;;